Terminal Aerodrome Forecast
Issued by NWS

Home | Current Version | Previous Version | Text Only | Print | Product List | Glossary On
Versions: 1 2 3 4 5 6 7 8 9 10 11 12 13 14 15 16 17
904
FTUS46 KMFR 052342
TAFOTH
TAF
KOTH 052342Z 0600/0624 20017G27KT P6SM RA FEW015 BKN035
     FM060100 24007KT 5SM RA BR OVC015
     FM061200 15005KT P6SM SCT015 BKN150
     FM061800 13004KT P6SM FEW015 SCT150=

USA.gov is the U.S. government's official web portal to all federal, state and local government web resources and services.